sensor_id;sensor_type;location;lat;lon;timestamp;temperature;humidity
18160;DHT22;9205;52.032;4.314;2022-12-29T00:00:54;11.60;99.90
18160;DHT22;9205;52.032;4.314;2022-12-29T00:03:23;11.70;99.90
18160;DHT22;9205;52.032;4.314;2022-12-29T00:05:54;11.70;99.90
18160;DHT22;9205;52.032;4.314;2022-12-29T00:08:23;11.70;99.90
18160;DHT22;9205;52.032;4.314;2022-12-29T00:11:05;11.50;99.90
18160;DHT22;9205;52.032;4.314;2022-12-29T00:13:33;11.70;99.90
18160;DHT22;9205;52.032;4.314;2022-12-29T00:16:18;11.70;99.90
18160;DHT22;9205;52.032;4.314;2022-12-29T00:18:47;11.70;99.90
18160;DHT22;9205;52.032;4.314;2022-12-29T00:21:17;11.60;99.90
18160;DHT22;9205;52.032;4.314;2022-12-29T00:24:03;11.50;99.90
18160;DHT22;9205;52.032;4.314;2022-12-29T00:26:47;11.50;99.90
18160;DHT22;9205;52.032;4.314;2022-12-29T00:29:34;11.60;99.90
18160;DHT22;9205;52.032;4.314;2022-12-29T00:32:15;11.70;63.90
18160;DHT22;9205;52.032;4.314;2022-12-29T00:35:02;11.70;2.30
18160;DHT22;9205;52.032;4.314;2022-12-29T00:37:36;11.60;1.00
18160;DHT22;9205;52.032;4.314;2022-12-29T00:40:21;11.70;1.00
18160;DHT22;9205;52.032;4.314;2022-12-29T00:43:06;11.50;1.00
18160;DHT22;9205;52.032;4.314;2022-12-29T00:45:51;11.70;1.00
18160;DHT22;9205;52.032;4.314;2022-12-29T00:48:18;11.70;7.80
18160;DHT22;9205;52.032;4.314;2022-12-29T00:51:08;11.50;28.20
18160;DHT22;9205;52.032;4.314;2022-12-29T00:53:34;11.50;69.40
18160;DHT22;9205;52.032;4.314;2022-12-29T00:56:02;11.50;99.90
18160;DHT22;9205;52.032;4.314;2022-12-29T00:58:30;11.40;99.90
18160;DHT22;9205;52.032;4.314;2022-12-29T01:01:01;11.30;99.90
18160;DHT22;9205;52.032;4.314;2022-12-29T01:03:32;11.40;99.90
18160;DHT22;9205;52.032;4.314;2022-12-29T01:06:00;11.40;99.90
18160;DHT22;9205;52.032;4.314;2022-12-29T01:08:30;11.50;99.90
18160;DHT22;9205;52.032;4.314;2022-12-29T01:10:58;11.40;99.90
18160;DHT22;9205;52.032;4.314;2022-12-29T01:13:27;11.40;99.90
18160;DHT22;9205;52.032;4.314;2022-12-29T01:15:55;11.50;99.90
18160;DHT22;9205;52.032;4.314;2022-12-29T01:18:25;11.30;99.90
18160;DHT22;9205;52.032;4.314;2022-12-29T01:20:58;11.50;99.90
18160;DHT22;9205;52.032;4.314;2022-12-29T01:23:27;11.60;99.90
18160;DHT22;9205;52.032;4.314;2022-12-29T01:25:56;11.60;99.90
18160;DHT22;9205;52.032;4.314;2022-12-29T01:28:24;11.50;99.90
18160;DHT22;9205;52.032;4.314;2022-12-29T01:30:51;11.30;99.90
18160;DHT22;9205;52.032;4.314;2022-12-29T01:33:19;11.50;99.90
18160;DHT22;9205;52.032;4.314;2022-12-29T01:35:46;11.40;99.90
18160;DHT22;9205;52.032;4.314;2022-12-29T01:38:14;11.40;99.90
18160;DHT22;9205;52.032;4.314;2022-12-29T01:40:46;11.20;99.90
18160;DHT22;9205;52.032;4.314;2022-12-29T01:43:14;11.30;99.90
18160;DHT22;9205;52.032;4.314;2022-12-29T01:45:45;11.20;99.90
18160;DHT22;9205;52.032;4.314;2022-12-29T01:48:18;11.40;99.90
18160;DHT22;9205;52.032;4.314;2022-12-29T01:50:50;11.40;99.90
18160;DHT22;9205;52.032;4.314;2022-12-29T01:53:22;11.20;99.90
18160;DHT22;9205;52.032;4.314;2022-12-29T01:55:57;11.40;54.30
18160;DHT22;9205;52.032;4.314;2022-12-29T01:58:30;11.30;1.00
18160;DHT22;9205;52.032;4.314;2022-12-29T02:01:00;11.40;1.00
18160;DHT22;9205;52.032;4.314;2022-12-29T02:03:29;11.30;1.00
18160;DHT22;9205;52.032;4.314;2022-12-29T02:06:03;11.40;1.00
18160;DHT22;9205;52.032;4.314;2022-12-29T02:08:38;11.40;1.00
18160;DHT22;9205;52.032;4.314;2022-12-29T02:11:08;11.20;1.00
18160;DHT22;9205;52.032;4.314;2022-12-29T02:13:36;11.20;1.00
18160;DHT22;9205;52.032;4.314;2022-12-29T02:16:11;11.10;1.00
18160;DHT22;9205;52.032;4.314;2022-12-29T02:18:56;11.10;1.00
18160;DHT22;9205;52.032;4.314;2022-12-29T02:22:03;11.10;52.40
18160;DHT22;9205;52.032;4.314;2022-12-29T02:28:33;10.80;99.90
18160;DHT22;9205;52.032;4.314;2022-12-29T02:31:19;10.70;99.90
18160;DHT22;9205;52.032;4.314;2022-12-29T02:33:59;10.70;99.90
18160;DHT22;9205;52.032;4.314;2022-12-29T02:36:40;10.60;99.90
18160;DHT22;9205;52.032;4.314;2022-12-29T02:39:19;10.60;99.90
18160;DHT22;9205;52.032;4.314;2022-12-29T02:41:56;10.40;99.90
18160;DHT22;9205;52.032;4.314;2022-12-29T02:44:36;10.50;99.90
18160;DHT22;9205;52.032;4.314;2022-12-29T02:47:23;10.70;99.90
18160;DHT22;9205;52.032;4.314;2022-12-29T02:49:59;10.60;99.90
18160;DHT22;9205;52.032;4.314;2022-12-29T02:52:37;10.70;99.90
18160;DHT22;9205;52.032;4.314;2022-12-29T02:55:10;10.50;99.90
18160;DHT22;9205;52.032;4.314;2022-12-29T02:57:37;10.50;99.90
18160;DHT22;9205;52.032;4.314;2022-12-29T03:00:07;10.60;99.90
18160;DHT22;9205;52.032;4.314;2022-12-29T03:02:51;10.50;99.90
18160;DHT22;9205;52.032;4.314;2022-12-29T03:05:41;10.50;99.90
18160;DHT22;9205;52.032;4.314;2022-12-29T03:08:29;10.70;99.90
18160;DHT22;9205;52.032;4.314;2022-12-29T03:11:06;10.50;99.90
18160;DHT22;9205;52.032;4.314;2022-12-29T03:14:02;10.80;99.90
18160;DHT22;9205;52.032;4.314;2022-12-29T03:16:55;10.60;99.90
18160;DHT22;9205;52.032;4.314;2022-12-29T03:19:30;10.50;99.90
18160;DHT22;9205;52.032;4.314;2022-12-29T03:22:04;10.70;99.90
18160;DHT22;9205;52.032;4.314;2022-12-29T03:25:16;10.50;99.90
18160;DHT22;9205;52.032;4.314;2022-12-29T03:27:49;10.60;99.90
18160;DHT22;9205;52.032;4.314;2022-12-29T03:30:20;10.60;99.90
18160;DHT22;9205;52.032;4.314;2022-12-29T03:32:51;10.80;99.90
18160;DHT22;9205;52.032;4.314;2022-12-29T03:35:27;10.60;99.90
18160;DHT22;9205;52.032;4.314;2022-12-29T03:38:02;10.60;99.90
18160;DHT22;9205;52.032;4.314;2022-12-29T03:40:37;10.70;99.90
18160;DHT22;9205;52.032;4.314;2022-12-29T03:43:08;10.60;99.90
18160;DHT22;9205;52.032;4.314;2022-12-29T03:45:36;10.80;99.90
18160;DHT22;9205;52.032;4.314;2022-12-29T03:48:04;10.60;59.90
18160;DHT22;9205;52.032;4.314;2022-12-29T03:50:35;10.70;1.00
18160;DHT22;9205;52.032;4.314;2022-12-29T03:53:02;10.70;1.00
18160;DHT22;9205;52.032;4.314;2022-12-29T03:55:30;10.60;1.00
18160;DHT22;9205;52.032;4.314;2022-12-29T03:57:57;10.60;1.00
18160;DHT22;9205;52.032;4.314;2022-12-29T04:00:39;10.60;1.00
18160;DHT22;9205;52.032;4.314;2022-12-29T04:03:06;10.60;1.00
18160;DHT22;9205;52.032;4.314;2022-12-29T04:05:35;10.70;99.90
18160;DHT22;9205;52.032;4.314;2022-12-29T04:08:02;10.60;99.90
18160;DHT22;9205;52.032;4.314;2022-12-29T04:10:30;10.50;99.90
18160;DHT22;9205;52.032;4.314;2022-12-29T04:12:59;10.50;1.00
18160;DHT22;9205;52.032;4.314;2022-12-29T04:15:27;10.40;1.00
18160;DHT22;9205;52.032;4.314;2022-12-29T04:17:54;10.40;1.00
18160;DHT22;9205;52.032;4.314;2022-12-29T04:20:22;10.30;1.00
18160;DHT22;9205;52.032;4.314;2022-12-29T04:23:08;10.30;1.00
18160;DHT22;9205;52.032;4.314;2022-12-29T04:25:37;10.40;1.00
18160;DHT22;9205;52.032;4.314;2022-12-29T04:28:08;10.30;1.00
18160;DHT22;9205;52.032;4.314;2022-12-29T04:31:09;10.20;1.00
18160;DHT22;9205;52.032;4.314;2022-12-29T04:33:40;10.20;1.00
18160;DHT22;9205;52.032;4.314;2022-12-29T04:36:07;10.20;5.50
18160;DHT22;9205;52.032;4.314;2022-12-29T04:38:38;10.10;99.90
18160;DHT22;9205;52.032;4.314;2022-12-29T04:41:06;10.10;99.90
18160;DHT22;9205;52.032;4.314;2022-12-29T04:43:35;10.20;99.90
18160;DHT22;9205;52.032;4.314;2022-12-29T04:46:21;10.20;1.00
18160;DHT22;9205;52.032;4.314;2022-12-29T04:48:56;10.30;1.00
18160;DHT22;9205;52.032;4.314;2022-12-29T04:51:44;10.20;1.00
18160;DHT22;9205;52.032;4.314;2022-12-29T04:54:15;10.20;1.00
18160;DHT22;9205;52.032;4.314;2022-12-29T04:56:48;10.10;1.00
18160;DHT22;9205;52.032;4.314;2022-12-29T04:59:16;10.30;1.00
18160;DHT22;9205;52.032;4.314;2022-12-29T05:01:46;10.10;1.00
18160;DHT22;9205;52.032;4.314;2022-12-29T05:04:14;10.20;1.00
18160;DHT22;9205;52.032;4.314;2022-12-29T05:06:43;10.20;1.00
18160;DHT22;9205;52.032;4.314;2022-12-29T05:09:10;10.30;1.00
18160;DHT22;9205;52.032;4.314;2022-12-29T05:11:39;10.40;99.90
18160;DHT22;9205;52.032;4.314;2022-12-29T05:14:08;10.30;99.90
18160;DHT22;9205;52.032;4.314;2022-12-29T05:16:37;10.20;99.90
18160;DHT22;9205;52.032;4.314;2022-12-29T05:19:05;10.20;99.90
18160;DHT22;9205;52.032;4.314;2022-12-29T05:21:33;10.20;1.00
18160;DHT22;9205;52.032;4.314;2022-12-29T05:24:00;10.30;1.00
18160;DHT22;9205;52.032;4.314;2022-12-29T05:26:28;10.40;1.00
18160;DHT22;9205;52.032;4.314;2022-12-29T05:29:05;10.30;1.00
18160;DHT22;9205;52.032;4.314;2022-12-29T05:31:32;10.20;1.00
18160;DHT22;9205;52.032;4.314;2022-12-29T05:34:02;10.30;1.00
18160;DHT22;9205;52.032;4.314;2022-12-29T05:36:29;10.10;1.00
18160;DHT22;9205;52.032;4.314;2022-12-29T05:38:59;10.10;1.00
18160;DHT22;9205;52.032;4.314;2022-12-29T05:41:26;10.10;1.00
18160;DHT22;9205;52.032;4.314;2022-12-29T05:44:14;10.10;1.00
18160;DHT22;9205;52.032;4.314;2022-12-29T05:46:50;10.30;1.00
18160;DHT22;9205;52.032;4.314;2022-12-29T05:49:32;10.20;1.00
18160;DHT22;9205;52.032;4.314;2022-12-29T05:52:07;10.10;1.00
18160;DHT22;9205;52.032;4.314;2022-12-29T05:54:35;10.20;1.00
18160;DHT22;9205;52.032;4.314;2022-12-29T05:57:08;10.10;1.00
18160;DHT22;9205;52.032;4.314;2022-12-29T05:59:39;10.10;1.00
18160;DHT22;9205;52.032;4.314;2022-12-29T06:02:06;10.10;1.00
18160;DHT22;9205;52.032;4.314;2022-12-29T06:04:34;10.00;1.00
18160;DHT22;9205;52.032;4.314;2022-12-29T06:07:02;10.20;1.00
18160;DHT22;9205;52.032;4.314;2022-12-29T06:09:44;10.00;1.00
18160;DHT22;9205;52.032;4.314;2022-12-29T06:12:12;10.00;1.00
18160;DHT22;9205;52.032;4.314;2022-12-29T06:14:43;10.00;1.00
18160;DHT22;9205;52.032;4.314;2022-12-29T06:17:10;10.10;1.00
18160;DHT22;9205;52.032;4.314;2022-12-29T06:19:38;10.00;1.00
18160;DHT22;9205;52.032;4.314;2022-12-29T06:22:06;10.00;99.90
18160;DHT22;9205;52.032;4.314;2022-12-29T06:24:34;10.00;99.90
18160;DHT22;9205;52.032;4.314;2022-12-29T06:27:02;9.90;99.90
18160;DHT22;9205;52.032;4.314;2022-12-29T06:29:29;9.90;7.60
18160;DHT22;9205;52.032;4.314;2022-12-29T06:31:58;9.90;1.00
18160;DHT22;9205;52.032;4.314;2022-12-29T06:34:27;9.90;1.00
18160;DHT22;9205;52.032;4.314;2022-12-29T06:36:55;9.90;1.00
18160;DHT22;9205;52.032;4.314;2022-12-29T06:39:23;9.80;99.90
18160;DHT22;9205;52.032;4.314;2022-12-29T06:42:04;10.10;99.90
18160;DHT22;9205;52.032;4.314;2022-12-29T06:44:40;10.00;1.00
18160;DHT22;9205;52.032;4.314;2022-12-29T06:47:10;10.10;1.00
18160;DHT22;9205;52.032;4.314;2022-12-29T06:49:40;10.00;1.00
18160;DHT22;9205;52.032;4.314;2022-12-29T06:52:07;10.00;1.00
18160;DHT22;9205;52.032;4.314;2022-12-29T06:54:34;9.80;99.90
18160;DHT22;9205;52.032;4.314;2022-12-29T06:57:02;9.80;99.90
18160;DHT22;9205;52.032;4.314;2022-12-29T06:59:29;9.90;99.90
18160;DHT22;9205;52.032;4.314;2022-12-29T07:01:57;9.80;99.90
18160;DHT22;9205;52.032;4.314;2022-12-29T07:04:25;9.80;99.90
18160;DHT22;9205;52.032;4.314;2022-12-29T07:06:53;9.80;99.90
18160;DHT22;9205;52.032;4.314;2022-12-29T07:09:20;9.90;99.90
18160;DHT22;9205;52.032;4.314;2022-12-29T07:11:48;9.80;99.90
18160;DHT22;9205;52.032;4.314;2022-12-29T07:14:15;9.90;99.90
18160;DHT22;9205;52.032;4.314;2022-12-29T07:16:42;9.90;99.90
18160;DHT22;9205;52.032;4.314;2022-12-29T07:19:10;9.80;99.90
18160;DHT22;9205;52.032;4.314;2022-12-29T07:21:40;9.90;99.90
18160;DHT22;9205;52.032;4.314;2022-12-29T07:24:07;9.80;99.90
18160;DHT22;9205;52.032;4.314;2022-12-29T07:26:36;9.80;99.90
18160;DHT22;9205;52.032;4.314;2022-12-29T07:29:03;10.00;99.90
18160;DHT22;9205;52.032;4.314;2022-12-29T07:31:30;9.90;99.90
18160;DHT22;9205;52.032;4.314;2022-12-29T07:33:58;10.00;99.90
18160;DHT22;9205;52.032;4.314;2022-12-29T07:36:25;10.00;99.90
18160;DHT22;9205;52.032;4.314;2022-12-29T07:38:54;9.90;99.90
18160;DHT22;9205;52.032;4.314;2022-12-29T07:41:21;10.00;99.90
18160;DHT22;9205;52.032;4.314;2022-12-29T07:43:49;9.90;99.90
18160;DHT22;9205;52.032;4.314;2022-12-29T07:46:44;10.00;99.90
18160;DHT22;9205;52.032;4.314;2022-12-29T07:49:12;10.00;1.00
18160;DHT22;9205;52.032;4.314;2022-12-29T07:51:39;10.00;1.00
18160;DHT22;9205;52.032;4.314;2022-12-29T07:54:08;10.00;1.00
18160;DHT22;9205;52.032;4.314;2022-12-29T07:56:37;10.00;1.00
18160;DHT22;9205;52.032;4.314;2022-12-29T07:59:05;10.00;1.00
18160;DHT22;9205;52.032;4.314;2022-12-29T08:01:33;10.00;1.00
18160;DHT22;9205;52.032;4.314;2022-12-29T08:04:00;10.00;1.00
18160;DHT22;9205;52.032;4.314;2022-12-29T08:06:28;10.10;1.00
18160;DHT22;9205;52.032;4.314;2022-12-29T08:08:56;10.00;1.00
18160;DHT22;9205;52.032;4.314;2022-12-29T08:11:25;10.00;1.00
18160;DHT22;9205;52.032;4.314;2022-12-29T08:13:52;10.00;1.00
18160;DHT22;9205;52.032;4.314;2022-12-29T08:16:20;9.80;99.90
18160;DHT22;9205;52.032;4.314;2022-12-29T08:18:47;9.80;99.90
18160;DHT22;9205;52.032;4.314;2022-12-29T08:21:14;9.80;1.00
18160;DHT22;9205;52.032;4.314;2022-12-29T08:23:42;9.80;1.00
18160;DHT22;9205;52.032;4.314;2022-12-29T08:26:10;9.80;1.00
18160;DHT22;9205;52.032;4.314;2022-12-29T08:28:39;9.70;1.00
18160;DHT22;9205;52.032;4.314;2022-12-29T08:31:06;9.70;99.90
18160;DHT22;9205;52.032;4.314;2022-12-29T08:33:33;9.60;1.00
18160;DHT22;9205;52.032;4.314;2022-12-29T08:36:02;9.80;1.00
18160;DHT22;9205;52.032;4.314;2022-12-29T08:38:30;9.80;1.00
18160;DHT22;9205;52.032;4.314;2022-12-29T08:40:58;9.70;1.00
18160;DHT22;9205;52.032;4.314;2022-12-29T08:43:27;9.60;99.90
18160;DHT22;9205;52.032;4.314;2022-12-29T08:45:57;9.80;1.00
18160;DHT22;9205;52.032;4.314;2022-12-29T08:48:25;9.60;1.00
18160;DHT22;9205;52.032;4.314;2022-12-29T08:50:52;9.70;1.00
18160;DHT22;9205;52.032;4.314;2022-12-29T08:53:20;9.70;1.00
18160;DHT22;9205;52.032;4.314;2022-12-29T08:55:54;9.60;1.00
18160;DHT22;9205;52.032;4.314;2022-12-29T08:58:22;9.60;1.00
18160;DHT22;9205;52.032;4.314;2022-12-29T09:00:52;9.70;99.90
18160;DHT22;9205;52.032;4.314;2022-12-29T09:03:22;9.70;99.90
18160;DHT22;9205;52.032;4.314;2022-12-29T09:05:50;9.90;99.90
18160;DHT22;9205;52.032;4.314;2022-12-29T09:08:19;9.80;99.90
18160;DHT22;9205;52.032;4.314;2022-12-29T09:10:47;9.90;99.90
18160;DHT22;9205;52.032;4.314;2022-12-29T09:13:16;9.80;99.90
18160;DHT22;9205;52.032;4.314;2022-12-29T09:15:44;9.70;99.90
18160;DHT22;9205;52.032;4.314;2022-12-29T09:18:12;10.00;99.90
18160;DHT22;9205;52.032;4.314;2022-12-29T09:20:43;9.90;99.90
18160;DHT22;9205;52.032;4.314;2022-12-29T09:26:01;10.00;99.90
18160;DHT22;9205;52.032;4.314;2022-12-29T09:28:29;10.10;99.90
18160;DHT22;9205;52.032;4.314;2022-12-29T09:30:57;9.90;99.90
18160;DHT22;9205;52.032;4.314;2022-12-29T09:33:25;10.20;99.90
18160;DHT22;9205;52.032;4.314;2022-12-29T09:35:57;10.00;99.90
18160;DHT22;9205;52.032;4.314;2022-12-29T09:38:28;10.20;99.90
18160;DHT22;9205;52.032;4.314;2022-12-29T09:41:01;10.10;99.90
18160;DHT22;9205;52.032;4.314;2022-12-29T09:43:56;10.10;99.90
18160;DHT22;9205;52.032;4.314;2022-12-29T09:46:34;10.40;99.90
18160;DHT22;9205;52.032;4.314;2022-12-29T09:49:13;10.20;99.90
18160;DHT22;9205;52.032;4.314;2022-12-29T09:51:50;10.20;99.90
18160;DHT22;9205;52.032;4.314;2022-12-29T09:54:25;10.50;99.90
18160;DHT22;9205;52.032;4.314;2022-12-29T09:57:01;10.50;99.90
18160;DHT22;9205;52.032;4.314;2022-12-29T09:59:39;10.60;99.90
18160;DHT22;9205;52.032;4.314;2022-12-29T10:02:22;10.50;99.90
18160;DHT22;9205;52.032;4.314;2022-12-29T10:04:55;10.50;99.90
18160;DHT22;9205;52.032;4.314;2022-12-29T10:07:33;10.20;99.90
18160;DHT22;9205;52.032;4.314;2022-12-29T10:10:19;10.40;99.90
18160;DHT22;9205;52.032;4.314;2022-12-29T10:13:01;10.10;99.90
18160;DHT22;9205;52.032;4.314;2022-12-29T10:15:49;10.10;99.90
18160;DHT22;9205;52.032;4.314;2022-12-29T10:21:40;10.10;99.90
18160;DHT22;9205;52.032;4.314;2022-12-29T10:24:21;10.10;73.50
18160;DHT22;9205;52.032;4.314;2022-12-29T10:26:51;10.30;12.50
18160;DHT22;9205;52.032;4.314;2022-12-29T10:29:20;10.10;1.00
18160;DHT22;9205;52.032;4.314;2022-12-29T10:31:58;10.10;1.00
18160;DHT22;9205;52.032;4.314;2022-12-29T10:34:29;10.30;1.00
18160;DHT22;9205;52.032;4.314;2022-12-29T10:37:04;10.30;1.00
18160;DHT22;9205;52.032;4.314;2022-12-29T10:39:44;10.20;1.00
18160;DHT22;9205;52.032;4.314;2022-12-29T10:42:20;10.30;1.00
18160;DHT22;9205;52.032;4.314;2022-12-29T10:44:54;10.40;1.00
18160;DHT22;9205;52.032;4.314;2022-12-29T10:47:24;10.30;1.00
18160;DHT22;9205;52.032;4.314;2022-12-29T10:49:55;10.50;99.90
18160;DHT22;9205;52.032;4.314;2022-12-29T10:52:25;10.50;17.90
18160;DHT22;9205;52.032;4.314;2022-12-29T10:54:58;10.40;1.00
18160;DHT22;9205;52.032;4.314;2022-12-29T10:57:32;10.30;1.00
18160;DHT22;9205;52.032;4.314;2022-12-29T11:00:11;10.40;99.90
18160;DHT22;9205;52.032;4.314;2022-12-29T11:03:10;10.30;99.90
18160;DHT22;9205;52.032;4.314;2022-12-29T11:05:57;10.40;19.10
18160;DHT22;9205;52.032;4.314;2022-12-29T11:08:33;10.50;1.00
18160;DHT22;9205;52.032;4.314;2022-12-29T11:11:07;10.60;1.00
18160;DHT22;9205;52.032;4.314;2022-12-29T11:13:47;10.60;1.00
18160;DHT22;9205;52.032;4.314;2022-12-29T11:16:27;10.50;99.90
18160;DHT22;9205;52.032;4.314;2022-12-29T11:18:57;10.50;95.60
18160;DHT22;9205;52.032;4.314;2022-12-29T11:21:30;10.50;1.00
18160;DHT22;9205;52.032;4.314;2022-12-29T11:24:00;10.60;1.00
18160;DHT22;9205;52.032;4.314;2022-12-29T11:26:33;10.50;1.00
18160;DHT22;9205;52.032;4.314;2022-12-29T11:29:25;10.40;1.00
18160;DHT22;9205;52.032;4.314;2022-12-29T11:31:55;10.50;1.00
18160;DHT22;9205;52.032;4.314;2022-12-29T11:34:26;10.40;1.00
18160;DHT22;9205;52.032;4.314;2022-12-29T11:37:02;10.50;1.00
18160;DHT22;9205;52.032;4.314;2022-12-29T11:39:38;10.40;1.00
18160;DHT22;9205;52.032;4.314;2022-12-29T11:42:15;10.40;1.00
18160;DHT22;9205;52.032;4.314;2022-12-29T11:44:45;10.40;99.90
18160;DHT22;9205;52.032;4.314;2022-12-29T11:47:23;10.40;99.90
18160;DHT22;9205;52.032;4.314;2022-12-29T11:49:56;10.50;1.00
18160;DHT22;9205;52.032;4.314;2022-12-29T11:52:28;10.50;1.00
18160;DHT22;9205;52.032;4.314;2022-12-29T11:55:03;10.50;1.00
18160;DHT22;9205;52.032;4.314;2022-12-29T11:57:35;10.40;1.00
18160;DHT22;9205;52.032;4.314;2022-12-29T12:00:06;10.30;1.00
18160;DHT22;9205;52.032;4.314;2022-12-29T12:02:48;10.30;1.00
18160;DHT22;9205;52.032;4.314;2022-12-29T12:05:30;10.30;1.00
18160;DHT22;9205;52.032;4.314;2022-12-29T12:08:09;10.40;1.00
18160;DHT22;9205;52.032;4.314;2022-12-29T12:10:46;10.30;98.90
18160;DHT22;9205;52.032;4.314;2022-12-29T12:13:30;10.40;99.90
18160;DHT22;9205;52.032;4.314;2022-12-29T12:16:06;10.60;1.00
18160;DHT22;9205;52.032;4.314;2022-12-29T12:18:43;10.60;1.00
18160;DHT22;9205;52.032;4.314;2022-12-29T12:21:20;10.50;1.00
18160;DHT22;9205;52.032;4.314;2022-12-29T12:24:14;10.60;99.90
18160;DHT22;9205;52.032;4.314;2022-12-29T12:26:58;10.70;99.90
18160;DHT22;9205;52.032;4.314;2022-12-29T12:29:35;10.60;99.90
18160;DHT22;9205;52.032;4.314;2022-12-29T12:32:13;10.60;99.90
18160;DHT22;9205;52.032;4.314;2022-12-29T12:34:47;10.60;96.20
18160;DHT22;9205;52.032;4.314;2022-12-29T12:37:39;10.60;41.00
18160;DHT22;9205;52.032;4.314;2022-12-29T12:40:49;10.50;1.00
18160;DHT22;9205;52.032;4.314;2022-12-29T12:43:38;10.50;1.00
18160;DHT22;9205;52.032;4.314;2022-12-29T12:46:19;10.60;1.00
18160;DHT22;9205;52.032;4.314;2022-12-29T12:49:14;10.50;1.00
18160;DHT22;9205;52.032;4.314;2022-12-29T12:51:59;10.60;1.00
18160;DHT22;9205;52.032;4.314;2022-12-29T12:54:43;10.60;1.00
18160;DHT22;9205;52.032;4.314;2022-12-29T12:57:31;10.60;1.00
18160;DHT22;9205;52.032;4.314;2022-12-29T13:00:10;10.50;1.00
18160;DHT22;9205;52.032;4.314;2022-12-29T13:02:49;10.60;1.00
18160;DHT22;9205;52.032;4.314;2022-12-29T13:05:35;10.60;1.00
18160;DHT22;9205;52.032;4.314;2022-12-29T13:08:32;10.60;1.00
18160;DHT22;9205;52.032;4.314;2022-12-29T13:11:23;10.50;1.00
18160;DHT22;9205;52.032;4.314;2022-12-29T13:14:19;10.60;1.00
18160;DHT22;9205;52.032;4.314;2022-12-29T13:17:01;10.70;1.00
18160;DHT22;9205;52.032;4.314;2022-12-29T13:19:40;10.70;1.00
18160;DHT22;9205;52.032;4.314;2022-12-29T13:22:16;10.70;1.00
18160;DHT22;9205;52.032;4.314;2022-12-29T13:25:12;10.70;1.00
18160;DHT22;9205;52.032;4.314;2022-12-29T13:27:50;10.70;1.00
18160;DHT22;9205;52.032;4.314;2022-12-29T13:30:26;10.70;1.00
18160;DHT22;9205;52.032;4.314;2022-12-29T13:33:03;10.70;1.00
18160;DHT22;9205;52.032;4.314;2022-12-29T13:35:56;10.60;1.00
18160;DHT22;9205;52.032;4.314;2022-12-29T13:38:33;10.50;1.00
18160;DHT22;9205;52.032;4.314;2022-12-29T13:41:06;10.60;1.00
18160;DHT22;9205;52.032;4.314;2022-12-29T13:43:39;10.50;1.00
18160;DHT22;9205;52.032;4.314;2022-12-29T13:46:12;10.40;1.00
18160;DHT22;9205;52.032;4.314;2022-12-29T13:48:47;10.50;1.00
18160;DHT22;9205;52.032;4.314;2022-12-29T13:51:20;10.40;1.00
18160;DHT22;9205;52.032;4.314;2022-12-29T13:54:06;10.30;1.00
18160;DHT22;9205;52.032;4.314;2022-12-29T13:56:56;10.20;70.40
18160;DHT22;9205;52.032;4.314;2022-12-29T13:59:40;10.20;99.90
18160;DHT22;9205;52.032;4.314;2022-12-29T14:02:21;10.20;1.00
18160;DHT22;9205;52.032;4.314;2022-12-29T14:04:59;10.30;1.00
18160;DHT22;9205;52.032;4.314;2022-12-29T14:07:36;10.30;1.00
18160;DHT22;9205;52.032;4.314;2022-12-29T14:10:05;10.30;1.00
18160;DHT22;9205;52.032;4.314;2022-12-29T14:12:40;10.20;20.00
18160;DHT22;9205;52.032;4.314;2022-12-29T14:15:21;10.30;5.10
18160;DHT22;9205;52.032;4.314;2022-12-29T14:18:05;10.30;46.10
18160;DHT22;9205;52.032;4.314;2022-12-29T14:20:46;10.40;90.60
18160;DHT22;9205;52.032;4.314;2022-12-29T14:23:28;10.20;99.90
18160;DHT22;9205;52.032;4.314;2022-12-29T14:26:17;10.30;99.90
18160;DHT22;9205;52.032;4.314;2022-12-29T14:29:15;10.20;99.90
18160;DHT22;9205;52.032;4.314;2022-12-29T14:35:40;10.30;32.30
18160;DHT22;9205;52.032;4.314;2022-12-29T14:38:29;10.30;1.00
18160;DHT22;9205;52.032;4.314;2022-12-29T14:41:17;10.40;1.00
18160;DHT22;9205;52.032;4.314;2022-12-29T14:43:56;10.40;1.00
18160;DHT22;9205;52.032;4.314;2022-12-29T14:46:54;10.20;1.00
18160;DHT22;9205;52.032;4.314;2022-12-29T14:49:25;10.40;1.00
18160;DHT22;9205;52.032;4.314;2022-12-29T14:52:06;10.30;1.00
18160;DHT22;9205;52.032;4.314;2022-12-29T14:54:52;10.30;1.00
18160;DHT22;9205;52.032;4.314;2022-12-29T14:57:34;10.30;99.90
18160;DHT22;9205;52.032;4.314;2022-12-29T15:00:17;10.30;99.90
18160;DHT22;9205;52.032;4.314;2022-12-29T15:02:50;10.20;99.90
18160;DHT22;9205;52.032;4.314;2022-12-29T15:05:30;10.30;99.90
18160;DHT22;9205;52.032;4.314;2022-12-29T15:08:02;10.30;99.90
18160;DHT22;9205;52.032;4.314;2022-12-29T15:10:42;10.20;99.90
18160;DHT22;9205;52.032;4.314;2022-12-29T15:13:16;10.30;99.90
18160;DHT22;9205;52.032;4.314;2022-12-29T15:15:51;10.20;99.90
18160;DHT22;9205;52.032;4.314;2022-12-29T15:18:24;10.30;99.90
18160;DHT22;9205;52.032;4.314;2022-12-29T15:20:55;10.10;99.90
18160;DHT22;9205;52.032;4.314;2022-12-29T15:23:25;10.10;99.90
18160;DHT22;9205;52.032;4.314;2022-12-29T15:26:02;10.20;99.90
18160;DHT22;9205;52.032;4.314;2022-12-29T15:28:37;10.10;88.00
18160;DHT22;9205;52.032;4.314;2022-12-29T15:31:11;10.10;1.00
18160;DHT22;9205;52.032;4.314;2022-12-29T15:33:42;10.10;1.00
18160;DHT22;9205;52.032;4.314;2022-12-29T15:36:14;10.00;1.00
18160;DHT22;9205;52.032;4.314;2022-12-29T15:38:46;10.00;1.00
18160;DHT22;9205;52.032;4.314;2022-12-29T15:41:24;9.90;1.00
18160;DHT22;9205;52.032;4.314;2022-12-29T15:44:04;9.90;1.00
18160;DHT22;9205;52.032;4.314;2022-12-29T15:46:38;9.80;1.00
18160;DHT22;9205;52.032;4.314;2022-12-29T15:49:07;9.80;1.00
18160;DHT22;9205;52.032;4.314;2022-12-29T15:51:38;9.80;1.00
18160;DHT22;9205;52.032;4.314;2022-12-29T15:54:15;9.80;1.00
18160;DHT22;9205;52.032;4.314;2022-12-29T15:56:46;9.70;1.00
18160;DHT22;9205;52.032;4.314;2022-12-29T15:59:24;9.70;1.00
18160;DHT22;9205;52.032;4.314;2022-12-29T16:01:53;9.60;1.00
18160;DHT22;9205;52.032;4.314;2022-12-29T16:04:23;9.60;1.00
18160;DHT22;9205;52.032;4.314;2022-12-29T16:06:56;9.60;1.00
18160;DHT22;9205;52.032;4.314;2022-12-29T16:09:32;9.60;1.00
18160;DHT22;9205;52.032;4.314;2022-12-29T16:12:16;9.60;1.00
18160;DHT22;9205;52.032;4.314;2022-12-29T16:14:50;9.50;1.00
18160;DHT22;9205;52.032;4.314;2022-12-29T16:17:23;9.60;1.00
18160;DHT22;9205;52.032;4.314;2022-12-29T16:19:55;9.40;1.00
18160;DHT22;9205;52.032;4.314;2022-12-29T16:22:28;9.40;1.00
18160;DHT22;9205;52.032;4.314;2022-12-29T16:24:59;9.50;1.00
18160;DHT22;9205;52.032;4.314;2022-12-29T16:27:36;9.40;1.00
18160;DHT22;9205;52.032;4.314;2022-12-29T16:30:16;9.40;1.00
18160;DHT22;9205;52.032;4.314;2022-12-29T16:32:48;9.40;1.00
18160;DHT22;9205;52.032;4.314;2022-12-29T16:35:19;9.40;1.00
18160;DHT22;9205;52.032;4.314;2022-12-29T16:37:49;9.40;1.00
18160;DHT22;9205;52.032;4.314;2022-12-29T16:40:38;9.40;1.00
18160;DHT22;9205;52.032;4.314;2022-12-29T16:43:21;9.30;1.00
18160;DHT22;9205;52.032;4.314;2022-12-29T16:48:54;9.30;1.00
18160;DHT22;9205;52.032;4.314;2022-12-29T16:51:29;9.10;1.00
18160;DHT22;9205;52.032;4.314;2022-12-29T16:53:59;9.20;1.00
18160;DHT22;9205;52.032;4.314;2022-12-29T16:56:29;9.10;1.00
18160;DHT22;9205;52.032;4.314;2022-12-29T16:59:04;9.20;1.00
18160;DHT22;9205;52.032;4.314;2022-12-29T17:01:36;9.10;1.00